Time;durP1;ratioP1;P1;durP2;ratioP2;P2;SDS_P1;SDS_P2;PMS_P1;PMS_P2;Temp;Humidity;BMP_temperature;BMP_pressure;BME280_temperature;BME280_humidity;BME280_pressure;Samples;Min_cycle;Max_cycle;Signal;HPM_P1;HPM_P2
2021/03/27 00:01:45;;;;;;;9.00;4.60;;;7.70;99.90;;;;;;5056543;28;20111;-72
2021/03/27 00:04:39;;;;;;;8.73;4.45;;;7.70;99.90;;;;;;5052707;28;20033;-72
2021/03/27 00:07:20;;;;;;;8.45;4.20;;;7.80;99.90;;;;;;5047279;28;20048;-73
2021/03/27 00:09:51;;;;;;;7.70;4.50;;;7.70;99.90;;;;;;5086555;28;20029;-73
2021/03/27 00:12:30;;;;;;;6.53;4.00;;;7.70;99.90;;;;;;5050435;28;20036;-73
2021/03/27 00:15:10;;;;;;;7.10;4.35;;;7.70;99.90;;;;;;5050913;28;20111;-73
2021/03/27 00:17:38;;;;;;;7.07;4.18;;;7.80;99.90;;;;;;5057197;28;20043;-72
2021/03/27 00:20:38;;;;;;;7.38;4.20;;;7.80;99.90;;;;;;5057131;28;20628;-73
2021/03/27 00:23:06;;;;;;;7.65;3.70;;;7.80;99.90;;;;;;5056856;28;20040;-73
2021/03/27 00:25:39;;;;;;;7.35;4.35;;;7.80;99.90;;;;;;5058524;28;20033;-73
2021/03/27 00:28:56;;;;;;;8.68;3.78;;;7.80;99.90;;;;;;5051018;28;20067;-73
2021/03/27 00:31:43;;;;;;;7.13;4.32;;;7.90;99.90;;;;;;5064976;28;20036;-73
2021/03/27 00:34:16;;;;;;;5.72;3.60;;;7.90;99.90;;;;;;5056925;28;20051;-72
2021/03/27 00:36:54;;;;;;;6.30;4.05;;;7.90;99.90;;;;;;5044211;28;20056;-73
2021/03/27 00:39:26;;;;;;;8.15;3.78;;;7.90;99.90;;;;;;5058602;28;20029;-73
2021/03/27 00:41:55;;;;;;;8.57;3.80;;;7.90;99.90;;;;;;5053523;28;20124;-74
2021/03/27 00:44:25;;;;;;;5.60;3.08;;;8.00;99.90;;;;;;5057247;28;20029;-73
2021/03/27 00:46:52;;;;;;;6.50;3.70;;;8.00;99.90;;;;;;5055114;28;20028;-73
2021/03/27 00:49:22;;;;;;;5.75;3.78;;;8.10;99.90;;;;;;5058709;28;20082;-73
2021/03/27 00:52:03;;;;;;;7.70;3.72;;;8.10;99.90;;;;;;5056983;28;20446;-73
2021/03/27 00:54:37;;;;;;;6.65;4.20;;;8.20;99.90;;;;;;5055798;28;20031;-73
2021/03/27 00:57:24;;;;;;;7.28;3.90;;;8.20;99.90;;;;;;5059401;28;20063;-73
2021/03/27 01:00:13;;;;;;;7.00;4.05;;;8.20;99.90;;;;;;5055664;28;20386;-73
2021/03/27 01:03:05;;;;;;;;;;;8.30;99.90;;;;;;5061453;28;20040;-73
2021/03/27 01:05:57;;;;;;;7.78;4.00;;;8.30;99.90;;;;;;5042424;28;19912;-73
2021/03/27 01:08:50;;;;;;;9.63;3.72;;;8.30;99.90;;;;;;5055273;28;20127;-72
2021/03/27 01:11:41;;;;;;;7.72;4.00;;;8.20;99.90;;;;;;5061291;28;20036;-73
2021/03/27 01:14:15;;;;;;;5.75;3.42;;;8.10;99.90;;;;;;5057429;28;20578;-73
2021/03/27 01:16:56;;;;;;;6.85;3.47;;;8.10;99.90;;;;;;5063177;28;20029;-73
2021/03/27 01:19:35;;;;;;;6.05;3.10;;;8.10;99.90;;;;;;5058188;28;20397;-73
2021/03/27 01:22:05;;;;;;;4.95;3.45;;;8.00;99.90;;;;;;5063405;28;20361;-73
2021/03/27 01:24:31;;;;;;;6.50;3.17;;;8.00;99.90;;;;;;5059735;28;20502;-74
2021/03/27 01:27:08;;;;;;;5.57;3.58;;;8.00;99.90;;;;;;5057773;28;20028;-73
2021/03/27 01:29:45;;;;;;;5.03;3.08;;;8.00;99.90;;;;;;5061635;28;20178;-74
2021/03/27 01:32:28;;;;;;;5.20;3.72;;;8.00;99.90;;;;;;5073115;28;20044;-73
2021/03/27 01:35:08;;;;;;;4.90;2.95;;;8.10;99.90;;;;;;5054617;28;20021;-73
2021/03/27 01:37:46;;;;;;;5.60;3.47;;;8.10;99.90;;;;;;5091401;28;20090;-73
2021/03/27 01:40:19;;;;;;;7.10;3.50;;;8.20;99.90;;;;;;5056476;28;20052;-73
2021/03/27 01:43:22;;;;;;;8.10;3.50;;;8.20;99.90;;;;;;5062640;28;20383;-73
2021/03/27 01:46:31;;;;;;;7.10;3.65;;;8.30;99.90;;;;;;5042694;28;20024;-73
2021/03/27 01:49:33;;;;;;;5.90;3.58;;;8.30;99.90;;;;;;5057762;28;20588;-72
2021/03/27 01:52:23;;;;;;;8.25;3.88;;;8.40;99.90;;;;;;5053523;28;20033;-73
2021/03/27 01:54:59;;;;;;;4.72;3.35;;;8.40;99.90;;;;;;5056467;28;20028;-73
2021/03/27 01:57:41;;;;;;;5.70;3.35;;;8.30;99.90;;;;;;5048334;28;20670;-72
2021/03/27 02:00:44;;;;;;;4.15;3.25;;;8.30;99.90;;;;;;5053111;28;20093;-73
2021/03/27 02:03:19;;;;;;;7.70;3.42;;;8.20;99.90;;;;;;5053459;28;20045;-73
2021/03/27 02:06:04;;;;;;;6.18;3.90;;;8.10;99.90;;;;;;5061188;28;20096;-73
2021/03/27 02:08:30;;;;;;;7.18;3.72;;;8.00;99.90;;;;;;5061439;28;20033;-73
2021/03/27 02:11:20;;;;;;;10.63;4.28;;;8.00;99.90;;;;;;5060748;28;20029;-73
2021/03/27 02:13:57;;;;;;;8.43;3.72;;;7.90;99.90;;;;;;5055441;28;20329;-73
2021/03/27 02:16:44;;;;;;;8.38;4.13;;;7.90;99.90;;;;;;5056772;28;20537;-74
2021/03/27 02:19:38;;;;;;;6.35;3.75;;;7.90;99.90;;;;;;5088636;28;20074;-73
2021/03/27 02:22:26;;;;;;;7.60;4.00;;;7.80;99.90;;;;;;5061304;28;20032;-72
2021/03/27 02:25:19;;;;;;;10.20;4.28;;;7.80;99.90;;;;;;5051388;28;20082;-73
2021/03/27 02:27:56;;;;;;;8.07;4.18;;;7.80;99.90;;;;;;5059679;28;20025;-73
2021/03/27 02:30:41;;;;;;;8.23;4.13;;;7.80;99.90;;;;;;5054310;28;20048;-74
2021/03/27 02:33:23;;;;;;;7.22;4.07;;;7.80;99.90;;;;;;5057127;28;20078;-72
2021/03/27 02:36:08;;;;;;;8.13;4.15;;;7.80;99.90;;;;;;5061462;28;20024;-73
2021/03/27 02:38:58;;;;;;;6.43;3.70;;;7.80;99.90;;;;;;5059309;28;20044;-73
2021/03/27 02:41:30;;;;;;;6.20;4.10;;;7.70;99.90;;;;;;5060525;28;20444;-73
2021/03/27 02:44:22;;;;;;;8.10;4.65;;;7.80;99.90;;;;;;5055702;28;20036;-72
2021/03/27 02:46:52;;;;;;;8.20;4.75;;;7.70;99.90;;;;;;5096150;28;20135;-73
2021/03/27 02:49:24;;;;;;;7.45;4.47;;;7.70;99.90;;;;;;5061352;28;20174;-73
2021/03/27 02:52:18;;;;;;;7.93;4.97;;;7.70;99.90;;;;;;5062054;28;20028;-73
2021/03/27 02:54:46;;;;;;;8.43;5.18;;;7.70;99.90;;;;;;5062863;28;20364;-73
2021/03/27 02:57:44;;;;;;;6.15;4.30;;;7.80;99.90;;;;;;5066609;28;20037;-73
2021/03/27 03:00:19;;;;;;;7.07;4.43;;;7.70;99.90;;;;;;5060700;28;20530;-73
2021/03/27 03:03:26;;;;;;;9.00;4.67;;;7.70;99.90;;;;;;5066288;28;20013;-73
2021/03/27 03:06:05;;;;;;;6.82;4.10;;;7.60;99.90;;;;;;5035163;28;20127;-72
2021/03/27 03:09:18;;;;;;;6.43;4.10;;;7.60;99.90;;;;;;5055092;28;20028;-73
2021/03/27 03:11:56;;;;;;;6.63;4.60;;;7.50;99.90;;;;;;5050955;28;20110;-73
2021/03/27 03:14:34;;;;;;;8.73;4.18;;;7.50;99.90;;;;;;5059711;28;20035;-72
2021/03/27 03:17:24;;;;;;;6.10;4.68;;;7.40;99.90;;;;;;5064754;28;20027;-73
2021/03/27 03:20:13;;;;;;;8.25;4.50;;;7.40;99.90;;;;;;5060517;28;20013;-73
2021/03/27 03:22:57;;;;;;;10.93;4.68;;;7.30;99.90;;;;;;5057797;28;20427;-73
2021/03/27 03:25:27;;;;;;;7.07;4.25;;;7.20;99.90;;;;;;5060169;28;20064;-72
2021/03/27 03:28:11;;;;;;;10.05;4.60;;;7.10;99.90;;;;;;5062247;28;20429;-74
2021/03/27 03:31:02;;;;;;;6.80;3.97;;;7.10;99.90;;;;;;5065854;28;20098;-73
2021/03/27 03:33:46;;;;;;;8.18;4.97;;;7.10;99.90;;;;;;5059067;28;20135;-73
2021/03/27 03:36:42;;;;;;;7.70;4.43;;;7.20;99.90;;;;;;5052690;28;20043;-73
2021/03/27 03:39:36;;;;;;;8.83;4.53;;;7.20;99.90;;;;;;5066232;28;20441;-73
2021/03/27 03:42:16;;;;;;;9.07;4.65;;;7.30;99.90;;;;;;5059101;28;20337;-73
2021/03/27 03:44:42;;;;;;;10.02;5.00;;;7.40;99.90;;;;;;5044897;28;20025;-73
2021/03/27 03:47:26;;;;;;;6.78;4.53;;;7.40;99.90;;;;;;5058130;28;20032;-73
2021/03/27 03:50:09;;;;;;;6.18;4.25;;;7.50;99.90;;;;;;5057170;28;20024;-73
2021/03/27 03:52:46;;;;;;;8.95;5.00;;;7.50;99.90;;;;;;5054090;28;20029;-73
2021/03/27 03:55:22;;;;;;;9.95;4.32;;;7.50;99.90;;;;;;5055312;28;20071;-73
2021/03/27 03:57:48;;;;;;;8.80;4.80;;;7.50;99.90;;;;;;5055955;28;20035;-73
2021/03/27 04:00:43;;;;;;;7.40;4.38;;;7.50;99.90;;;;;;5058239;28;20021;-72
2021/03/27 04:03:33;;;;;;;6.93;4.43;;;7.50;99.90;;;;;;5056548;28;20150;-73
2021/03/27 04:06:04;;;;;;;7.22;4.57;;;7.50;99.90;;;;;;5056035;28;20029;-73
2021/03/27 04:09:03;;;;;;;7.18;4.43;;;7.60;99.90;;;;;;5060693;28;20471;-73
2021/03/27 04:12:03;;;;;;;8.15;4.28;;;7.70;99.90;;;;;;5054174;28;20039;-73
2021/03/27 04:14:56;;;;;;;8.05;4.47;;;7.60;99.90;;;;;;5049193;28;20074;-73
2021/03/27 04:18:03;;;;;;;6.88;4.38;;;7.50;99.90;;;;;;5063801;28;20119;-73
2021/03/27 04:21:09;;;;;;;7.60;4.88;;;7.40;99.90;;;;;;5019744;28;20030;-73
2021/03/27 04:23:41;;;;;;;7.90;4.55;;;7.40;99.90;;;;;;5050952;28;20223;-73
2021/03/27 04:26:22;;;;;;;10.80;5.13;;;7.30;99.90;;;;;;5063529;28;20032;-73
2021/03/27 04:28:57;;;;;;;7.20;4.72;;;7.40;99.90;;;;;;5055047;28;20438;-74
2021/03/27 04:32:19;;;;;;;8.82;5.28;;;7.50;99.90;;;;;;5058276;28;20058;-72
2021/03/27 04:34:54;;;;;;;7.50;4.57;;;7.60;99.90;;;;;;5061090;28;20486;-74
2021/03/27 04:38:05;;;;;;;7.55;5.00;;;7.70;99.90;;;;;;5074134;28;20031;-74
2021/03/27 04:40:41;;;;;;;8.73;5.05;;;7.70;99.90;;;;;;5030149;28;20415;-72
2021/03/27 04:43:20;;;;;;;5.82;3.60;;;7.90;99.90;;;;;;5058094;28;20029;-72
2021/03/27 04:45:51;;;;;;;6.03;4.10;;;7.90;99.90;;;;;;5057713;28;20029;-74
2021/03/27 04:49:00;;;;;;;11.45;4.78;;;8.00;99.90;;;;;;5059205;28;20063;-73
2021/03/27 04:51:37;;;;;;;6.75;4.25;;;8.10;99.90;;;;;;5039493;28;20017;-73
2021/03/27 04:54:16;;;;;;;5.97;4.15;;;8.20;99.90;;;;;;5036162;28;20768;-74
2021/03/27 04:57:14;;;;;;;6.93;4.28;;;8.20;99.90;;;;;;5055002;28;20032;-74
2021/03/27 05:00:22;;;;;;;6.47;4.03;;;8.20;99.90;;;;;;5059795;28;20029;-73
2021/03/27 05:03:00;;;;;;;7.63;3.90;;;8.20;99.90;;;;;;5089931;28;20041;-73
2021/03/27 05:05:32;;;;;;;12.60;4.35;;;8.20;99.90;;;;;;5051582;28;20392;-73
2021/03/27 05:08:09;;;;;;;5.78;3.88;;;8.10;99.90;;;;;;5053358;28;20039;-74
2021/03/27 05:11:00;;;;;;;6.53;3.58;;;8.10;99.90;;;;;;5059883;28;20035;-74
2021/03/27 05:13:32;;;;;;;5.88;3.63;;;8.10;99.90;;;;;;5073739;28;20035;-73
2021/03/27 05:16:22;;;;;;;6.00;3.90;;;8.10;99.90;;;;;;5061650;28;20067;-74
2021/03/27 05:19:15;;;;;;;6.05;4.03;;;8.10;99.90;;;;;;5041832;28;20025;-74
2021/03/27 05:22:05;;;;;;;10.85;4.53;;;8.00;99.90;;;;;;5052945;28;20100;-74
2021/03/27 05:25:05;;;;;;;7.05;4.40;;;7.90;99.90;;;;;;5054273;28;20382;-74
2021/03/27 05:27:57;;;;;;;6.90;4.43;;;7.90;99.90;;;;;;5058030;28;20020;-74
2021/03/27 05:30:30;;;;;;;8.27;4.82;;;7.80;99.90;;;;;;5062613;28;20394;-73
2021/03/27 05:33:07;;;;;;;6.55;4.18;;;7.70;99.90;;;;;;5060487;28;20417;-73
2021/03/27 05:35:57;;;;;;;8.30;4.70;;;7.80;99.90;;;;;;5057800;28;20058;-72
2021/03/27 05:38:37;;;;;;;7.93;4.85;;;7.70;99.90;;;;;;5061885;28;20088;-72
2021/03/27 05:41:17;;;;;;;7.93;4.72;;;7.70;99.90;;;;;;5064232;28;20637;-73
2021/03/27 05:44:04;;;;;;;6.57;4.43;;;7.70;99.90;;;;;;5067891;28;20486;-73
2021/03/27 05:46:38;;;;;;;10.38;5.50;;;7.70;99.90;;;;;;5057424;28;20028;-73
2021/03/27 05:49:10;;;;;;;7.45;4.72;;;7.60;99.90;;;;;;5058213;28;20044;-73
2021/03/27 05:51:44;;;;;;;8.02;5.20;;;7.60;99.90;;;;;;5058147;28;20048;-73
2021/03/27 05:54:29;;;;;;;7.95;4.85;;;7.60;99.90;;;;;;5078536;28;20036;-72
2021/03/27 05:57:27;;;;;;;6.88;4.72;;;7.60;99.90;;;;;;5077483;28;20043;-72
2021/03/27 06:00:02;;;;;;;6.75;4.45;;;7.50;99.90;;;;;;5060679;28;20021;-73
2021/03/27 06:02:51;;;;;;;8.52;4.88;;;7.50;99.90;;;;;;5059891;28;20051;-73
2021/03/27 06:05:43;;;;;;;9.18;4.70;;;7.50;99.90;;;;;;5062044;28;20499;-73
2021/03/27 06:08:27;;;;;;;8.85;4.68;;;7.50;99.90;;;;;;5056644;28;20610;-73
2021/03/27 06:11:09;;;;;;;7.47;4.53;;;7.50;99.90;;;;;;5063792;28;20035;-73
2021/03/27 06:13:46;;;;;;;6.80;4.10;;;7.40;99.90;;;;;;5047072;28;20037;-73
2021/03/27 06:16:23;;;;;;;7.80;4.13;;;7.40;99.90;;;;;;5063118;28;20456;-73
2021/03/27 06:19:17;;;;;;;6.60;4.45;;;7.40;99.90;;;;;;5065351;28;20035;-73
2021/03/27 06:22:00;;;;;;;6.40;4.53;;;7.40;99.90;;;;;;5060082;28;20013;-73
2021/03/27 06:24:43;;;;;;;6.85;4.03;;;7.40;99.90;;;;;;5058755;28;20035;-74
2021/03/27 06:27:41;;;;;;;7.65;4.43;;;7.40;99.90;;;;;;5058387;28;20035;-73
2021/03/27 06:30:18;;;;;;;7.10;3.97;;;7.40;99.90;;;;;;5061011;28;20032;-73
2021/03/27 06:33:02;;;;;;;6.95;4.13;;;7.50;99.90;;;;;;5061348;28;20021;-73
2021/03/27 06:35:52;;;;;;;6.68;4.03;;;7.50;99.90;;;;;;5059362;28;20538;-73
2021/03/27 06:38:55;;;;;;;5.85;4.20;;;7.60;99.90;;;;;;5062660;28;20034;-73
2021/03/27 06:41:39;;;;;;;6.22;4.00;;;7.60;99.90;;;;;;5057836;28;20072;-73
2021/03/27 06:44:38;;;;;;;6.40;3.67;;;7.70;99.90;;;;;;5092918;28;20039;-72
2021/03/27 06:47:22;;;;;;;9.55;4.25;;;7.80;99.90;;;;;;5059497;28;20074;-73
2021/03/27 06:49:57;;;;;;;6.40;4.38;;;7.90;99.90;;;;;;5062031;28;20056;-73
2021/03/27 06:52:53;;;;;;;7.83;4.30;;;8.10;99.90;;;;;;5059669;28;20025;-73
2021/03/27 06:55:31;;;;;;;7.35;4.15;;;8.20;99.90;;;;;;5062960;28;20029;-73
2021/03/27 06:58:35;;;;;;;5.40;3.70;;;8.20;99.90;;;;;;5061375;28;20609;-73
2021/03/27 07:01:21;;;;;;;5.82;3.75;;;8.30;99.90;;;;;;5057637;28;20483;-73
2021/03/27 07:04:24;;;;;;;7.85;3.78;;;8.50;99.90;;;;;;5061812;28;20028;-73
2021/03/27 07:07:08;;;;;;;5.97;3.40;;;8.70;99.90;;;;;;5065179;28;20025;-72
2021/03/27 07:09:54;;;;;;;3.42;2.55;;;8.70;99.90;;;;;;5061506;28;20064;-73
2021/03/27 07:12:43;;;;;;;5.30;3.22;;;8.50;99.90;;;;;;5060652;28;20021;-73
2021/03/27 07:15:15;;;;;;;3.67;3.00;;;8.40;99.90;;;;;;5061958;28;20029;-73
2021/03/27 07:18:15;;;;;;;5.60;2.88;;;8.30;99.90;;;;;;5061344;28;20443;-74
2021/03/27 07:21:11;;;;;;;4.03;2.60;;;8.20;99.90;;;;;;5059332;28;20519;-72
2021/03/27 07:24:20;;;;;;;4.47;3.08;;;8.10;99.90;;;;;;5089272;28;20059;-73
2021/03/27 07:26:46;;;;;;;3.85;2.47;;;8.00;99.90;;;;;;5051073;28;20017;-73
2021/03/27 07:29:31;;;;;;;3.67;2.33;;;8.00;99.90;;;;;;5060352;28;20453;-73
2021/03/27 07:32:05;;;;;;;4.03;2.47;;;7.90;99.90;;;;;;5061645;28;20572;-73
2021/03/27 07:34:55;;;;;;;2.45;1.98;;;7.80;99.90;;;;;;5061406;28;20070;-74
2021/03/27 07:37:50;;;;;;;2.05;1.52;;;7.70;99.90;;;;;;5058785;28;20114;-73
2021/03/27 07:40:37;;;;;;;1.63;1.40;;;7.70;99.90;;;;;;5059359;28;20025;-73
2021/03/27 07:43:31;;;;;;;1.60;1.30;;;7.70;99.90;;;;;;5062232;28;20064;-74
2021/03/27 07:46:26;;;;;;;1.75;1.23;;;8.10;99.90;;;;;;5059162;28;20098;-73
2021/03/27 07:49:40;;;;;;;1.20;0.85;;;8.60;99.90;;;;;;5058655;28;20048;-73
2021/03/27 07:52:29;;;;;;;0.73;0.50;;;9.20;99.90;;;;;;5059013;28;20154;-72
2021/03/27 07:55:19;;;;;;;0.65;0.47;;;9.80;99.90;;;;;;5066844;28;20028;-74
2021/03/27 07:58:33;;;;;;;0.50;0.30;;;9.90;99.90;;;;;;5060187;28;20024;-73
2021/03/27 08:01:17;;;;;;;0.32;0.30;;;10.20;99.90;;;;;;5028736;28;20423;-73
2021/03/27 08:04:17;;;;;;;1.15;0.38;;;10.30;99.90;;;;;;5059445;28;20110;-73
2021/03/27 08:07:07;;;;;;;0.60;0.40;;;10.50;99.90;;;;;;5056054;28;20399;-73
2021/03/27 08:09:36;;;;;;;0.30;0.30;;;10.70;99.90;;;;;;5054828;28;20087;-74
2021/03/27 08:12:29;;;;;;;0.57;0.40;;;10.90;99.90;;;;;;5058307;28;20025;-74
2021/03/27 08:15:32;;;;;;;1.13;0.15;;;10.90;99.90;;;;;;5054948;28;20048;-73
2021/03/27 08:18:32;;;;;;;0.20;0.20;;;10.50;99.90;;;;;;5058146;28;20025;-73
2021/03/27 08:21:26;;;;;;;0.28;0.20;;;10.10;99.90;;;;;;5058891;28;20051;-73
2021/03/27 08:23:55;;;;;;;0.30;0.30;;;9.80;99.90;;;;;;5058646;28;20032;-74
2021/03/27 08:27:12;;;;;;;0.22;0.20;;;9.60;99.90;;;;;;5063934;28;20108;-74
2021/03/27 08:30:00;;;;;;;0.10;0.10;;;9.30;99.90;;;;;;5008013;28;20037;-73
2021/03/27 08:32:40;;;;;;;0.10;0.10;;;9.00;99.90;;;;;;5085744;28;20079;-74
2021/03/27 08:35:50;;;;;;;0.40;0.20;;;9.00;99.90;;;;;;5050530;28;20024;-73
2021/03/27 08:38:57;;;;;;;0.25;0.20;;;9.10;99.90;;;;;;5063923;28;20056;-73
2021/03/27 08:41:47;;;;;;;0.75;0.10;;;9.60;99.90;;;;;;4977923;28;20493;-74
2021/03/27 08:44:36;;;;;;;0.10;0.10;;;9.70;99.90;;;;;;5061565;28;20036;-76
2021/03/27 08:47:27;;;;;;;0.10;0.10;;;9.80;99.90;;;;;;5062750;28;20407;-74
2021/03/27 08:50:10;;;;;;;0.90;0.13;;;9.80;99.90;;;;;;5058814;28;20024;-75
2021/03/27 08:52:45;;;;;;;1.70;0.22;;;9.90;99.90;;;;;;5066652;28;20032;-74
2021/03/27 08:55:40;;;;;;;0.32;0.10;;;9.80;99.90;;;;;;5092455;28;20029;-74
2021/03/27 08:58:36;;;;;;;1.27;0.40;;;9.70;99.90;;;;;;5059886;28;20064;-72
2021/03/27 09:01:32;;;;;;;0.90;0.10;;;9.60;99.90;;;;;;5052797;28;20021;-75
2021/03/27 09:04:19;;;;;;;0.10;0.10;;;9.60;99.90;;;;;;5052837;28;20024;-74
2021/03/27 09:07:10;;;;;;;0.10;0.10;;;9.50;99.90;;;;;;5061284;28;20147;-75
2021/03/27 09:09:50;;;;;;;1.20;0.17;;;9.50;99.90;;;;;;5086134;28;20029;-74
2021/03/27 09:12:41;;;;;;;0.10;0.10;;;9.50;99.90;;;;;;5062719;28;20055;-74
2021/03/27 09:15:26;;;;;;;0.40;0.20;;;9.60;99.90;;;;;;5056970;28;20658;-73
2021/03/27 09:18:06;;;;;;;0.65;0.20;;;9.50;99.90;;;;;;5058389;28;20132;-74
2021/03/27 09:20:56;;;;;;;0.25;0.20;;;9.50;99.90;;;;;;5048669;28;20094;-74
2021/03/27 09:23:36;;;;;;;0.20;0.20;;;9.60;99.90;;;;;;5090854;28;20082;-75
2021/03/27 09:26:25;;;;;;;1.55;0.40;;;9.80;99.90;;;;;;5050379;28;20021;-72
2021/03/27 09:29:00;;;;;;;1.85;0.20;;;9.80;99.90;;;;;;5044531;28;20032;-73
2021/03/27 09:31:37;;;;;;;0.35;0.13;;;9.70;99.90;;;;;;5057379;28;20044;-75
2021/03/27 09:34:22;;;;;;;0.10;0.10;;;9.60;99.90;;;;;;5056858;28;20032;-76
2021/03/27 09:36:59;;;;;;;0.45;0.20;;;9.50;99.90;;;;;;5058143;28;20430;-75
2021/03/27 09:39:33;;;;;;;0.10;0.10;;;9.50;99.90;;;;;;5063035;28;20103;-71
2021/03/27 09:42:05;;;;;;;0.10;0.10;;;9.50;99.90;;;;;;5061778;28;20024;-74
2021/03/27 09:45:03;;;;;;;0.20;0.20;;;9.60;99.90;;;;;;5053353;28;20514;-73
2021/03/27 09:48:06;;;;;;;0.20;0.20;;;9.60;99.90;;;;;;5051872;28;20048;-72
2021/03/27 09:50:35;;;;;;;0.30;0.20;;;9.60;99.90;;;;;;5054619;28;20021;-74
2021/03/27 09:53:05;;;;;;;0.13;0.13;;;9.70;99.90;;;;;;5051999;28;20533;-73
2021/03/27 09:55:38;;;;;;;0.10;0.10;;;9.80;99.90;;;;;;5051287;28;20086;-74
2021/03/27 09:58:41;;;;;;;1.35;0.40;;;9.80;99.10;;;;;;5057124;28;20064;-73
2021/03/27 10:01:34;;;;;;;0.45;0.22;;;9.70;98.60;;;;;;5057351;28;20055;-73
2021/03/27 10:04:20;;;;;;;0.38;0.30;;;9.70;96.60;;;;;;5059135;28;20108;-73
2021/03/27 10:06:46;;;;;;;0.63;0.40;;;9.70;99.00;;;;;;5056035;28;20047;-73
2021/03/27 10:09:28;;;;;;;1.27;0.50;;;9.70;96.90;;;;;;5053362;28;20483;-74
2021/03/27 10:12:01;;;;;;;0.35;0.30;;;9.60;96.40;;;;;;5055983;28;20033;-75
2021/03/27 10:14:33;;;;;;;0.85;0.20;;;9.70;98.50;;;;;;5062694;28;20021;-74
2021/03/27 10:17:04;;;;;;;0.30;0.30;;;9.60;94.70;;;;;;5059841;28;20044;-75
2021/03/27 10:19:41;;;;;;;0.10;0.10;;;9.60;99.10;;;;;;5060839;28;20075;-76
2021/03/27 10:22:19;;;;;;;0.22;0.22;;;9.50;99.90;;;;;;5052997;28;20033;-75
2021/03/27 10:25:16;;;;;;;0.30;0.22;;;9.50;98.90;;;;;;5059327;28;20388;-73
2021/03/27 10:27:43;;;;;;;0.93;0.30;;;9.40;98.30;;;;;;5036184;28;20119;-75
2021/03/27 10:30:34;;;;;;;0.50;0.30;;;9.40;99.90;;;;;;5038012;28;20033;-75
2021/03/27 10:33:08;;;;;;;0.30;0.30;;;9.50;98.00;;;;;;5056817;28;20025;-73
2021/03/27 10:35:46;;;;;;;0.85;0.40;;;9.60;98.40;;;;;;5058070;28;20017;-74
2021/03/27 10:38:49;;;;;;;1.63;0.40;;;9.70;97.00;;;;;;5055363;28;20082;-74
2021/03/27 10:41:50;;;;;;;0.73;0.50;;;9.80;99.90;;;;;;5056889;28;20303;-74
2021/03/27 10:44:32;;;;;;;1.52;0.90;;;9.90;95.90;;;;;;4961219;28;20028;-73
2021/03/27 10:47:27;;;;;;;1.42;0.50;;;10.20;98.00;;;;;;5048920;28;20060;-74
2021/03/27 10:50:00;;;;;;;0.77;0.40;;;10.40;95.10;;;;;;5051853;28;20099;-73
2021/03/27 10:53:03;;;;;;;0.85;0.43;;;10.70;98.20;;;;;;5055763;28;20128;-73
2021/03/27 10:55:43;;;;;;;1.92;0.73;;;11.00;98.00;;;;;;5058623;28;20033;-74
2021/03/27 10:58:28;;;;;;;0.52;0.50;;;11.20;94.00;;;;;;5087914;28;20035;-74
2021/03/27 11:01:22;;;;;;;0.98;0.88;;;11.30;88.10;;;;;;5054213;28;20383;-74
2021/03/27 11:03:59;;;;;;;0.60;0.50;;;11.20;88.10;;;;;;5061514;28;20025;-74
2021/03/27 11:06:55;;;;;;;2.25;0.70;;;10.90;91.70;;;;;;5057396;28;20021;-74
2021/03/27 11:09:59;;;;;;;0.98;0.90;;;10.70;93.30;;;;;;5065528;28;20028;-74
2021/03/27 11:12:45;;;;;;;1.63;0.77;;;10.50;93.40;;;;;;5037730;28;20039;-74
2021/03/27 11:15:40;;;;;;;2.45;0.60;;;10.30;91.20;;;;;;5058409;28;20039;-74
2021/03/27 11:18:16;;;;;;;0.67;0.67;;;10.10;91.40;;;;;;5043705;28;20067;-74
2021/03/27 11:20:53;;;;;;;0.70;0.50;;;9.90;92.60;;;;;;5053664;28;20727;-73
2021/03/27 11:23:42;;;;;;;0.88;0.80;;;9.80;93.10;;;;;;5053460;28;20029;-73
2021/03/27 11:26:38;;;;;;;1.05;0.50;;;9.80;93.40;;;;;;5056695;28;20033;-72
2021/03/27 11:29:27;;;;;;;;;;;9.70;92.20;;;;;;5093097;28;20025;-75
2021/03/27 11:32:08;;;;;;;1.63;0.63;;;9.70;91.60;;;;;;5052272;28;19924;-72
2021/03/27 11:34:39;;;;;;;0.88;0.60;;;9.60;94.30;;;;;;5086383;28;20043;-74
2021/03/27 11:37:35;;;;;;;1.35;0.30;;;9.60;93.30;;;;;;5056931;28;20028;-73
2021/03/27 11:40:34;;;;;;;0.93;0.63;;;9.50;91.10;;;;;;5047685;28;20021;-74
2021/03/27 11:43:02;;;;;;;0.50;0.40;;;9.40;91.40;;;;;;5058178;28;20387;-74
2021/03/27 11:45:37;;;;;;;0.57;0.50;;;9.50;92.70;;;;;;5060443;28;20021;-75
2021/03/27 11:48:15;;;;;;;1.48;0.70;;;9.60;91.80;;;;;;5042220;28;20040;-75
2021/03/27 11:50:41;;;;;;;2.40;0.70;;;9.80;91.00;;;;;;5055770;28;20578;-75
2021/03/27 11:53:31;;;;;;;0.80;0.30;;;10.20;90.50;;;;;;5051852;28;20132;-75
2021/03/27 11:56:05;;;;;;;0.63;0.40;;;10.60;85.40;;;;;;5055287;28;20123;-75
2021/03/27 11:59:41;;;;;;;0.65;0.20;;;10.90;87.40;;;;;;5056484;28;20017;-74
2021/03/27 12:01:33;;;;;;;1.35;0.20;;;11.30;87.60;;;;;;5053354;28;20608;-75
2021/03/27 12:04:25;;;;;;;0.50;0.20;;;11.50;81.40;;;;;;5052890;28;20029;-73
2021/03/27 12:07:16;;;;;;;1.40;0.88;;;11.60;77.50;;;;;;5053308;28;20705;-75
2021/03/27 12:09:57;;;;;;;1.42;0.45;;;11.60;74.30;;;;;;5057473;28;20025;-72
2021/03/27 12:12:48;;;;;;;2.63;0.40;;;11.60;80.00;;;;;;5058761;28;20032;-73
2021/03/27 12:15:32;;;;;;;1.00;0.40;;;11.60;82.60;;;;;;5065425;28;20067;-73
2021/03/27 12:18:16;;;;;;;1.90;0.50;;;11.70;78.50;;;;;;5051926;28;20091;-74
2021/03/27 12:20:45;;;;;;;0.20;0.20;;;11.70;81.40;;;;;;5044166;28;20388;-74
2021/03/27 12:23:34;;;;;;;0.30;0.30;;;11.60;75.90;;;;;;5058632;28;20063;-74
2021/03/27 12:26:27;;;;;;;0.70;0.50;;;11.30;73.30;;;;;;5053660;28;20067;-71
2021/03/27 12:29:11;;;;;;;1.27;0.40;;;11.10;75.50;;;;;;5057308;28;20485;-74
2021/03/27 12:31:45;;;;;;;1.55;0.50;;;10.90;78.10;;;;;;5051463;28;20511;-74
2021/03/27 12:34:35;;;;;;;0.45;0.30;;;10.80;76.70;;;;;;5060668;28;20020;-73
2021/03/27 12:37:01;;;;;;;1.27;0.65;;;10.70;77.20;;;;;;5053142;28;20021;-73
2021/03/27 12:39:44;;;;;;;0.88;0.40;;;10.50;80.30;;;;;;5041106;28;20025;-74
2021/03/27 12:42:15;;;;;;;1.67;0.60;;;10.60;81.20;;;;;;5037905;28;20140;-75
2021/03/27 12:44:43;;;;;;;1.40;0.60;;;10.50;76.80;;;;;;5052479;28;20735;-74
2021/03/27 12:47:09;;;;;;;2.00;0.40;;;10.50;76.80;;;;;;5050194;28;20028;-73
2021/03/27 12:49:49;;;;;;;2.30;1.35;;;10.40;74.60;;;;;;5054712;28;20511;-74
2021/03/27 12:52:43;;;;;;;0.75;0.50;;;10.30;77.20;;;;;;5052827;28;20079;-73
2021/03/27 12:55:37;;;;;;;0.52;0.40;;;10.20;79.00;;;;;;5055457;28;20033;-73
2021/03/27 12:58:28;;;;;;;2.25;0.40;;;10.20;78.70;;;;;;5049072;28;20037;-73
2021/03/27 13:01:09;;;;;;;1.70;0.70;;;10.20;77.30;;;;;;5053996;28;20024;-75
2021/03/27 13:03:50;;;;;;;0.75;0.40;;;10.50;74.90;;;;;;5049955;28;20078;-72
2021/03/27 13:06:40;;;;;;;1.25;0.47;;;10.50;76.10;;;;;;5055050;28;20078;-72
2021/03/27 13:09:11;;;;;;;1.50;0.28;;;10.50;76.80;;;;;;5083511;28;20059;-73
2021/03/27 13:11:57;;;;;;;0.77;0.40;;;10.50;80.80;;;;;;5055054;28;20651;-73
2021/03/27 13:14:42;;;;;;;;;;;10.50;79.40;;;;;;5056973;28;20029;-71
2021/03/27 13:17:22;;;;;;;1.65;0.38;;;10.60;75.40;;;;;;5054855;28;19921;-72
2021/03/27 13:20:17;;;;;;;1.95;0.35;;;10.60;80.40;;;;;;5055226;28;20104;-72
2021/03/27 13:23:11;;;;;;;1.63;0.38;;;10.90;82.30;;;;;;5055621;28;20017;-73
2021/03/27 13:26:04;;;;;;;1.30;0.22;;;11.30;80.10;;;;;;5046064;28;20037;-73
2021/03/27 13:28:51;;;;;;;0.63;0.20;;;11.40;75.00;;;;;;5055639;28;20051;-73
2021/03/27 13:31:45;;;;;;;3.33;0.73;;;11.30;77.50;;;;;;5045579;28;20032;-74
2021/03/27 13:34:43;;;;;;;0.60;0.38;;;11.20;71.20;;;;;;5044887;28;20044;-73
2021/03/27 13:37:14;;;;;;;0.60;0.60;;;11.10;70.20;;;;;;5023420;28;20487;-74
2021/03/27 13:39:50;;;;;;;2.13;0.65;;;10.90;70.90;;;;;;5055330;28;20033;-74
2021/03/27 13:42:38;;;;;;;1.20;0.30;;;10.80;69.80;;;;;;5059180;28;20422;-73
2021/03/27 13:45:26;;;;;;;1.08;0.20;;;10.90;73.10;;;;;;5062399;28;20074;-73
2021/03/27 13:48:11;;;;;;;2.42;0.30;;;10.90;72.50;;;;;;5053545;28;20541;-75
2021/03/27 13:50:37;;;;;;;0.40;0.35;;;11.00;73.80;;;;;;5057368;28;20024;-72
2021/03/27 13:53:20;;;;;;;0.73;0.30;;;11.30;70.00;;;;;;5054761;28;20017;-73
2021/03/27 13:56:23;;;;;;;2.70;0.40;;;11.40;70.70;;;;;;5058085;28;20054;-75
2021/03/27 13:59:18;;;;;;;0.57;0.30;;;11.60;69.30;;;;;;5061433;28;20075;-74
2021/03/27 14:02:22;;;;;;;1.55;0.10;;;11.80;68.90;;;;;;5046085;28;20020;-72
2021/03/27 14:04:59;;;;;;;0.93;0.30;;;11.80;69.40;;;;;;5034230;28;20044;-73
2021/03/27 14:07:47;;;;;;;0.73;0.63;;;11.70;67.20;;;;;;5055495;28;20625;-73
2021/03/27 14:10:40;;;;;;;1.20;0.47;;;11.40;67.40;;;;;;5056097;28;20060;-76
2021/03/27 14:13:39;;;;;;;0.20;0.20;;;11.20;71.50;;;;;;5055764;28;20017;-73
2021/03/27 14:16:29;;;;;;;2.17;0.60;;;11.10;71.80;;;;;;5055239;28;20434;-74
2021/03/27 14:19:06;;;;;;;0.95;0.55;;;11.00;74.70;;;;;;5044247;28;20033;-73
2021/03/27 14:21:57;;;;;;;1.45;0.55;;;10.80;81.10;;;;;;5054318;28;20031;-73
2021/03/27 14:24:40;;;;;;;0.98;0.50;;;10.60;88.90;;;;;;5055432;28;20020;-74
2021/03/27 14:27:20;;;;;;;0.52;0.50;;;10.50;90.30;;;;;;5053207;28;20583;-73
2021/03/27 14:29:55;;;;;;;1.23;0.60;;;10.40;91.50;;;;;;5060592;28;20487;-74